PMDY METAR and TAF weather

Enter ICAO airport designator
Station Type Date Time Source
PMDY METAR 2019/12/06 08:56 UTC NOAA

PMDY 060856Z AUTO 06005KT 8SM FEW011 OVC024 22/22 A3003 RMK AO2 SLP167 T02220217 53003


Station Type Date Time Source
PMDY Decoded METAR 2019/12/06 08:56 UTC NOAA

Sand Island, Henderson Field Airport, HI, United States (PMDY) 28-13N 177-22W 6M
Dec 06, 2019 - 03:56 AM EST / 2019.12.06 0856 UTC
Wind: from the ENE (060 degrees) at 6 MPH (5 KT):0
Visibility: 8 mile(s):0
Sky conditions: overcast
Temperature: 72.0 F (22.2 C)
Dew Point: 71.1 F (21.7 C)
Relative Humidity: 96%
Pressure (altimeter): 30.03 in. Hg (1016 hPa)
Pressure tendency: 0.01 inches (0.3 hPa) higher than three hours ago
ob: PMDY 060856Z AUTO 06005KT 8SM FEW011 OVC024 22/22 A3003 RMK AO2 SLP167 T02220217 53003
cycle: 9

Station Type Date Time Source
PMDY TAF 2019/12/06 06:45 UTC NOAA

TAF PMDY 060541Z 0606/0706 12008KT P6SM SCT025 BKN050

Example: see airport list